sensor_id;sensor_type;location;lat;lon;timestamp;P1;durP1;ratioP1;P2;durP2;ratioP2
47617;SDS011;33336;36.728;-4.414;2022-12-05T00:03:51;3.33;;;2.70;;
47617;SDS011;33336;36.728;-4.414;2022-12-05T00:08:55;4.63;;;2.92;;
47617;SDS011;33336;36.728;-4.414;2022-12-05T00:14:00;2.97;;;2.60;;
47617;SDS011;33336;36.728;-4.414;2022-12-05T00:19:04;4.85;;;3.70;;
47617;SDS011;33336;36.728;-4.414;2022-12-05T00:24:10;4.47;;;3.20;;
47617;SDS011;33336;36.728;-4.414;2022-12-05T00:29:15;8.35;;;3.00;;
47617;SDS011;33336;36.728;-4.414;2022-12-05T00:34:18;4.75;;;3.38;;
47617;SDS011;33336;36.728;-4.414;2022-12-05T00:39:21;4.93;;;3.20;;
47617;SDS011;33336;36.728;-4.414;2022-12-05T00:44:26;4.57;;;2.95;;
47617;SDS011;33336;36.728;-4.414;2022-12-05T00:49:29;4.45;;;2.30;;
47617;SDS011;33336;36.728;-4.414;2022-12-05T00:54:32;2.13;;;1.83;;
47617;SDS011;33336;36.728;-4.414;2022-12-05T00:59:36;3.92;;;2.40;;
47617;SDS011;33336;36.728;-4.414;2022-12-05T01:04:39;2.75;;;2.10;;
47617;SDS011;33336;36.728;-4.414;2022-12-05T01:09:41;3.05;;;2.47;;
47617;SDS011;33336;36.728;-4.414;2022-12-05T01:14:47;2.55;;;2.35;;
47617;SDS011;33336;36.728;-4.414;2022-12-05T01:19:50;5.28;;;2.47;;
47617;SDS011;33336;36.728;-4.414;2022-12-05T01:24:54;3.42;;;2.20;;
47617;SDS011;33336;36.728;-4.414;2022-12-05T01:29:59;4.25;;;2.33;;
47617;SDS011;33336;36.728;-4.414;2022-12-05T01:35:02;4.55;;;2.58;;
47617;SDS011;33336;36.728;-4.414;2022-12-05T01:40:06;3.85;;;2.65;;
47617;SDS011;33336;36.728;-4.414;2022-12-05T01:45:13;5.00;;;2.47;;
47617;SDS011;33336;36.728;-4.414;2022-12-05T01:50:18;3.67;;;2.63;;
47617;SDS011;33336;36.728;-4.414;2022-12-05T01:55:22;3.83;;;2.50;;
47617;SDS011;33336;36.728;-4.414;2022-12-05T02:00:26;2.53;;;2.13;;
47617;SDS011;33336;36.728;-4.414;2022-12-05T02:05:30;1.90;;;1.58;;
47617;SDS011;33336;36.728;-4.414;2022-12-05T02:10:35;2.70;;;1.98;;
47617;SDS011;33336;36.728;-4.414;2022-12-05T02:15:42;6.60;;;4.38;;
47617;SDS011;33336;36.728;-4.414;2022-12-05T02:20:55;5.68;;;4.60;;
47617;SDS011;33336;36.728;-4.414;2022-12-05T02:26:21;6.50;;;5.13;;
47617;SDS011;33336;36.728;-4.414;2022-12-05T02:31:40;10.13;;;7.10;;
47617;SDS011;33336;36.728;-4.414;2022-12-05T02:36:52;11.75;;;8.48;;
47617;SDS011;33336;36.728;-4.414;2022-12-05T02:42:02;12.70;;;9.70;;
47617;SDS011;33336;36.728;-4.414;2022-12-05T02:47:11;14.13;;;9.77;;
47617;SDS011;33336;36.728;-4.414;2022-12-05T02:52:16;11.00;;;7.57;;
47617;SDS011;33336;36.728;-4.414;2022-12-05T02:57:21;8.82;;;7.13;;
47617;SDS011;33336;36.728;-4.414;2022-12-05T03:02:27;9.23;;;6.88;;
47617;SDS011;33336;36.728;-4.414;2022-12-05T03:07:34;8.80;;;7.43;;
47617;SDS011;33336;36.728;-4.414;2022-12-05T03:12:39;10.25;;;8.00;;
47617;SDS011;33336;36.728;-4.414;2022-12-05T03:17:50;13.60;;;7.75;;
47617;SDS011;33336;36.728;-4.414;2022-12-05T03:22:57;12.55;;;8.00;;
47617;SDS011;33336;36.728;-4.414;2022-12-05T03:28:05;7.90;;;7.10;;
47617;SDS011;33336;36.728;-4.414;2022-12-05T03:33:13;7.68;;;6.65;;
47617;SDS011;33336;36.728;-4.414;2022-12-05T03:38:20;5.70;;;4.78;;
47617;SDS011;33336;36.728;-4.414;2022-12-05T03:43:30;6.13;;;4.78;;
47617;SDS011;33336;36.728;-4.414;2022-12-05T03:48:41;6.05;;;4.57;;
47617;SDS011;33336;36.728;-4.414;2022-12-05T03:53:55;3.90;;;2.53;;
47617;SDS011;33336;36.728;-4.414;2022-12-05T03:59:04;8.75;;;3.47;;
47617;SDS011;33336;36.728;-4.414;2022-12-05T04:04:13;4.43;;;2.70;;
47617;SDS011;33336;36.728;-4.414;2022-12-05T04:09:22;3.03;;;2.60;;
47617;SDS011;33336;36.728;-4.414;2022-12-05T04:14:29;4.75;;;3.15;;
47617;SDS011;33336;36.728;-4.414;2022-12-05T04:19:40;2.38;;;2.15;;
47617;SDS011;33336;36.728;-4.414;2022-12-05T04:25:17;4.85;;;2.58;;
47617;SDS011;33336;36.728;-4.414;2022-12-05T04:30:37;3.42;;;2.47;;
47617;SDS011;33336;36.728;-4.414;2022-12-05T04:35:46;2.20;;;2.00;;
47617;SDS011;33336;36.728;-4.414;2022-12-05T04:40:56;3.35;;;2.08;;
47617;SDS011;33336;36.728;-4.414;2022-12-05T04:46:02;4.20;;;2.03;;
47617;SDS011;33336;36.728;-4.414;2022-12-05T04:51:11;3.50;;;2.00;;
47617;SDS011;33336;36.728;-4.414;2022-12-05T04:56:18;2.58;;;1.88;;
47617;SDS011;33336;36.728;-4.414;2022-12-05T05:01:26;2.63;;;1.30;;
47617;SDS011;33336;36.728;-4.414;2022-12-05T05:06:37;3.10;;;1.38;;
47617;SDS011;33336;36.728;-4.414;2022-12-05T05:11:41;2.90;;;1.63;;
47617;SDS011;33336;36.728;-4.414;2022-12-05T05:16:43;2.78;;;1.55;;
47617;SDS011;33336;36.728;-4.414;2022-12-05T05:21:49;1.42;;;1.30;;
47617;SDS011;33336;36.728;-4.414;2022-12-05T05:26:52;3.08;;;1.80;;
47617;SDS011;33336;36.728;-4.414;2022-12-05T05:31:57;3.53;;;1.80;;
47617;SDS011;33336;36.728;-4.414;2022-12-05T05:37:01;2.45;;;1.52;;
47617;SDS011;33336;36.728;-4.414;2022-12-05T05:42:04;2.28;;;1.38;;
47617;SDS011;33336;36.728;-4.414;2022-12-05T05:47:06;4.97;;;3.58;;
47617;SDS011;33336;36.728;-4.414;2022-12-05T05:52:11;6.75;;;3.05;;
47617;SDS011;33336;36.728;-4.414;2022-12-05T05:57:14;5.05;;;3.92;;
47617;SDS011;33336;36.728;-4.414;2022-12-05T06:02:17;8.02;;;5.65;;
47617;SDS011;33336;36.728;-4.414;2022-12-05T06:07:21;7.03;;;5.03;;
47617;SDS011;33336;36.728;-4.414;2022-12-05T06:12:24;5.55;;;4.00;;
47617;SDS011;33336;36.728;-4.414;2022-12-05T06:17:26;7.80;;;5.43;;
47617;SDS011;33336;36.728;-4.414;2022-12-05T06:22:31;8.75;;;5.95;;
47617;SDS011;33336;36.728;-4.414;2022-12-05T06:27:34;9.70;;;6.25;;
47617;SDS011;33336;36.728;-4.414;2022-12-05T06:32:38;8.65;;;5.95;;
47617;SDS011;33336;36.728;-4.414;2022-12-05T06:37:42;8.77;;;5.57;;
47617;SDS011;33336;36.728;-4.414;2022-12-05T06:42:46;5.55;;;4.95;;
47617;SDS011;33336;36.728;-4.414;2022-12-05T06:47:49;6.20;;;4.82;;
47617;SDS011;33336;36.728;-4.414;2022-12-05T06:52:54;9.45;;;6.45;;
47617;SDS011;33336;36.728;-4.414;2022-12-05T06:57:57;7.20;;;5.53;;
47617;SDS011;33336;36.728;-4.414;2022-12-05T07:03:01;4.43;;;3.90;;
47617;SDS011;33336;36.728;-4.414;2022-12-05T07:08:05;5.72;;;4.05;;
47617;SDS011;33336;36.728;-4.414;2022-12-05T07:13:08;6.03;;;3.90;;
47617;SDS011;33336;36.728;-4.414;2022-12-05T07:18:12;7.20;;;4.45;;
47617;SDS011;33336;36.728;-4.414;2022-12-05T07:23:17;5.30;;;4.32;;
47617;SDS011;33336;36.728;-4.414;2022-12-05T07:28:20;6.70;;;4.55;;
47617;SDS011;33336;36.728;-4.414;2022-12-05T07:33:23;9.00;;;4.75;;
47617;SDS011;33336;36.728;-4.414;2022-12-05T07:38:28;5.50;;;4.20;;
47617;SDS011;33336;36.728;-4.414;2022-12-05T07:43:32;7.63;;;4.28;;
47617;SDS011;33336;36.728;-4.414;2022-12-05T07:48:34;5.60;;;3.90;;
47617;SDS011;33336;36.728;-4.414;2022-12-05T07:53:39;9.52;;;4.10;;
47617;SDS011;33336;36.728;-4.414;2022-12-05T07:58:44;11.07;;;4.18;;
47617;SDS011;33336;36.728;-4.414;2022-12-05T08:03:49;6.38;;;2.95;;
47617;SDS011;33336;36.728;-4.414;2022-12-05T08:08:55;3.83;;;2.70;;
47617;SDS011;33336;36.728;-4.414;2022-12-05T08:13:58;3.70;;;3.00;;
47617;SDS011;33336;36.728;-4.414;2022-12-05T08:19:02;13.07;;;7.00;;
47617;SDS011;33336;36.728;-4.414;2022-12-05T08:24:09;9.57;;;4.70;;
47617;SDS011;33336;36.728;-4.414;2022-12-05T08:29:13;61.92;;;26.95;;
47617;SDS011;33336;36.728;-4.414;2022-12-05T08:34:17;6.80;;;3.90;;
47617;SDS011;33336;36.728;-4.414;2022-12-05T08:39:22;4.22;;;3.08;;
47617;SDS011;33336;36.728;-4.414;2022-12-05T08:44:27;6.75;;;3.17;;
47617;SDS011;33336;36.728;-4.414;2022-12-05T08:49:30;8.68;;;4.47;;
47617;SDS011;33336;36.728;-4.414;2022-12-05T08:54:36;10.52;;;4.18;;
47617;SDS011;33336;36.728;-4.414;2022-12-05T08:59:42;10.25;;;4.03;;
47617;SDS011;33336;36.728;-4.414;2022-12-05T09:04:48;9.15;;;4.35;;
47617;SDS011;33336;36.728;-4.414;2022-12-05T09:09:53;61.97;;;11.00;;
47617;SDS011;33336;36.728;-4.414;2022-12-05T09:14:56;11.25;;;5.28;;
47617;SDS011;33336;36.728;-4.414;2022-12-05T09:19:59;9.27;;;3.83;;
47617;SDS011;33336;36.728;-4.414;2022-12-05T09:25:04;8.35;;;3.72;;
47617;SDS011;33336;36.728;-4.414;2022-12-05T09:30:09;11.57;;;5.40;;
47617;SDS011;33336;36.728;-4.414;2022-12-05T09:35:12;13.90;;;5.00;;
47617;SDS011;33336;36.728;-4.414;2022-12-05T09:40:16;12.80;;;4.22;;
47617;SDS011;33336;36.728;-4.414;2022-12-05T09:45:22;22.75;;;7.50;;
47617;SDS011;33336;36.728;-4.414;2022-12-05T09:50:30;20.52;;;7.55;;
47617;SDS011;33336;36.728;-4.414;2022-12-05T09:55:42;18.33;;;7.15;;
47617;SDS011;33336;36.728;-4.414;2022-12-05T10:00:48;12.98;;;5.50;;
47617;SDS011;33336;36.728;-4.414;2022-12-05T10:05:59;10.38;;;4.88;;
47617;SDS011;33336;36.728;-4.414;2022-12-05T10:11:12;4.82;;;2.67;;
47617;SDS011;33336;36.728;-4.414;2022-12-05T10:16:23;11.85;;;3.55;;
47617;SDS011;33336;36.728;-4.414;2022-12-05T10:21:32;9.27;;;2.10;;
47617;SDS011;33336;36.728;-4.414;2022-12-05T10:26:43;7.18;;;3.70;;
47617;SDS011;33336;36.728;-4.414;2022-12-05T10:31:47;4.50;;;2.17;;
47617;SDS011;33336;36.728;-4.414;2022-12-05T10:36:55;4.47;;;2.00;;
47617;SDS011;33336;36.728;-4.414;2022-12-05T10:42:04;5.15;;;2.40;;
47617;SDS011;33336;36.728;-4.414;2022-12-05T10:47:10;13.13;;;4.45;;
47617;SDS011;33336;36.728;-4.414;2022-12-05T10:52:13;9.98;;;2.90;;
47617;SDS011;33336;36.728;-4.414;2022-12-05T10:57:22;15.50;;;5.50;;
47617;SDS011;33336;36.728;-4.414;2022-12-05T11:02:26;4.97;;;1.38;;
47617;SDS011;33336;36.728;-4.414;2022-12-05T11:07:32;10.05;;;2.22;;
47617;SDS011;33336;36.728;-4.414;2022-12-05T11:12:40;5.38;;;1.65;;
47617;SDS011;33336;36.728;-4.414;2022-12-05T11:17:47;12.23;;;3.17;;
47617;SDS011;33336;36.728;-4.414;2022-12-05T11:22:52;3.47;;;1.77;;
47617;SDS011;33336;36.728;-4.414;2022-12-05T11:33:30;3.03;;;1.50;;
47617;SDS011;33336;36.728;-4.414;2022-12-05T11:38:34;4.28;;;2.00;;
47617;SDS011;33336;36.728;-4.414;2022-12-05T11:43:48;3.35;;;1.70;;
47617;SDS011;33336;36.728;-4.414;2022-12-05T11:49:10;3.72;;;1.60;;
47617;SDS011;33336;36.728;-4.414;2022-12-05T11:54:36;3.50;;;1.73;;
47617;SDS011;33336;36.728;-4.414;2022-12-05T12:05:19;5.38;;;1.58;;
47617;SDS011;33336;36.728;-4.414;2022-12-05T12:10:31;2.95;;;1.38;;
47617;SDS011;33336;36.728;-4.414;2022-12-05T12:15:42;7.35;;;1.90;;
47617;SDS011;33336;36.728;-4.414;2022-12-05T12:20:57;4.68;;;1.90;;
47617;SDS011;33336;36.728;-4.414;2022-12-05T12:26:09;11.10;;;3.80;;
47617;SDS011;33336;36.728;-4.414;2022-12-05T12:31:21;8.20;;;2.20;;
47617;SDS011;33336;36.728;-4.414;2022-12-05T12:36:45;9.05;;;2.85;;
47617;SDS011;33336;36.728;-4.414;2022-12-05T12:42:02;6.93;;;2.75;;
47617;SDS011;33336;36.728;-4.414;2022-12-05T12:47:22;7.80;;;2.35;;
47617;SDS011;33336;36.728;-4.414;2022-12-05T12:52:43;8.10;;;2.38;;
47617;SDS011;33336;36.728;-4.414;2022-12-05T12:58:15;9.95;;;3.60;;
47617;SDS011;33336;36.728;-4.414;2022-12-05T13:03:33;7.55;;;2.72;;
47617;SDS011;33336;36.728;-4.414;2022-12-05T13:08:43;8.88;;;3.53;;
47617;SDS011;33336;36.728;-4.414;2022-12-05T13:13:51;16.38;;;3.83;;
47617;SDS011;33336;36.728;-4.414;2022-12-05T13:18:58;10.35;;;3.00;;
47617;SDS011;33336;36.728;-4.414;2022-12-05T13:24:02;18.63;;;3.60;;
47617;SDS011;33336;36.728;-4.414;2022-12-05T13:29:13;13.50;;;3.45;;
47617;SDS011;33336;36.728;-4.414;2022-12-05T13:39:50;12.55;;;3.20;;
47617;SDS011;33336;36.728;-4.414;2022-12-05T13:45:14;19.70;;;4.32;;
47617;SDS011;33336;36.728;-4.414;2022-12-05T13:50:21;20.07;;;5.03;;
47617;SDS011;33336;36.728;-4.414;2022-12-05T13:55:31;12.52;;;3.80;;
47617;SDS011;33336;36.728;-4.414;2022-12-05T14:00:36;14.18;;;3.88;;
47617;SDS011;33336;36.728;-4.414;2022-12-05T14:05:47;14.75;;;3.22;;
47617;SDS011;33336;36.728;-4.414;2022-12-05T14:11:05;17.83;;;3.50;;
47617;SDS011;33336;36.728;-4.414;2022-12-05T14:21:45;19.02;;;4.57;;
47617;SDS011;33336;36.728;-4.414;2022-12-05T14:27:00;15.52;;;3.75;;
47617;SDS011;33336;36.728;-4.414;2022-12-05T14:32:14;21.15;;;3.90;;
47617;SDS011;33336;36.728;-4.414;2022-12-05T14:37:26;17.98;;;4.32;;
47617;SDS011;33336;36.728;-4.414;2022-12-05T14:42:34;25.35;;;5.15;;
47617;SDS011;33336;36.728;-4.414;2022-12-05T14:47:39;23.10;;;4.00;;
47617;SDS011;33336;36.728;-4.414;2022-12-05T14:58:25;23.83;;;5.65;;
47617;SDS011;33336;36.728;-4.414;2022-12-05T15:03:34;18.35;;;4.28;;
47617;SDS011;33336;36.728;-4.414;2022-12-05T15:08:44;29.95;;;4.63;;
47617;SDS011;33336;36.728;-4.414;2022-12-05T15:13:49;18.00;;;3.78;;
47617;SDS011;33336;36.728;-4.414;2022-12-05T15:18:54;22.30;;;4.40;;
47617;SDS011;33336;36.728;-4.414;2022-12-05T15:24:01;23.37;;;4.83;;
47617;SDS011;33336;36.728;-4.414;2022-12-05T15:29:08;17.67;;;4.35;;
47617;SDS011;33336;36.728;-4.414;2022-12-05T15:34:14;20.27;;;4.53;;
47617;SDS011;33336;36.728;-4.414;2022-12-05T15:39:24;21.50;;;4.10;;
47617;SDS011;33336;36.728;-4.414;2022-12-05T15:44:29;21.20;;;5.15;;
47617;SDS011;33336;36.728;-4.414;2022-12-05T15:49:32;23.77;;;5.47;;
47617;SDS011;33336;36.728;-4.414;2022-12-05T15:54:36;22.17;;;5.13;;
47617;SDS011;33336;36.728;-4.414;2022-12-05T15:59:42;26.75;;;6.22;;
47617;SDS011;33336;36.728;-4.414;2022-12-05T16:09:55;24.50;;;5.55;;
47617;SDS011;33336;36.728;-4.414;2022-12-05T16:15:00;30.13;;;5.25;;
47617;SDS011;33336;36.728;-4.414;2022-12-05T16:20:10;32.70;;;6.07;;
47617;SDS011;33336;36.728;-4.414;2022-12-05T16:25:23;29.83;;;6.13;;
47617;SDS011;33336;36.728;-4.414;2022-12-05T16:30:28;33.33;;;5.90;;
47617;SDS011;33336;36.728;-4.414;2022-12-05T16:35:35;22.23;;;5.22;;
47617;SDS011;33336;36.728;-4.414;2022-12-05T16:40:49;38.60;;;7.07;;
47617;SDS011;33336;36.728;-4.414;2022-12-05T16:45:58;28.13;;;6.40;;
47617;SDS011;33336;36.728;-4.414;2022-12-05T16:51:22;29.27;;;5.80;;
47617;SDS011;33336;36.728;-4.414;2022-12-05T16:56:29;27.00;;;6.03;;
47617;SDS011;33336;36.728;-4.414;2022-12-05T17:01:33;22.23;;;5.97;;
47617;SDS011;33336;36.728;-4.414;2022-12-05T17:06:36;27.38;;;5.95;;
47617;SDS011;33336;36.728;-4.414;2022-12-05T17:11:42;31.17;;;8.38;;
47617;SDS011;33336;36.728;-4.414;2022-12-05T17:16:47;37.67;;;7.07;;
47617;SDS011;33336;36.728;-4.414;2022-12-05T17:21:50;41.17;;;8.23;;
47617;SDS011;33336;36.728;-4.414;2022-12-05T17:26:54;37.25;;;7.63;;
47617;SDS011;33336;36.728;-4.414;2022-12-05T17:31:57;32.08;;;7.03;;
47617;SDS011;33336;36.728;-4.414;2022-12-05T17:37:00;35.78;;;7.50;;
47617;SDS011;33336;36.728;-4.414;2022-12-05T17:42:05;34.05;;;8.18;;
47617;SDS011;33336;36.728;-4.414;2022-12-05T17:47:08;40.47;;;9.27;;
47617;SDS011;33336;36.728;-4.414;2022-12-05T17:52:11;40.03;;;7.45;;
47617;SDS011;33336;36.728;-4.414;2022-12-05T17:57:16;28.00;;;7.10;;
47617;SDS011;33336;36.728;-4.414;2022-12-05T18:02:19;33.38;;;7.93;;
47617;SDS011;33336;36.728;-4.414;2022-12-05T18:07:22;33.33;;;7.28;;
47617;SDS011;33336;36.728;-4.414;2022-12-05T18:12:28;33.53;;;7.00;;
47617;SDS011;33336;36.728;-4.414;2022-12-05T18:17:30;31.75;;;6.40;;
47617;SDS011;33336;36.728;-4.414;2022-12-05T18:22:34;34.92;;;7.20;;
47617;SDS011;33336;36.728;-4.414;2022-12-05T18:27:38;24.05;;;6.53;;
47617;SDS011;33336;36.728;-4.414;2022-12-05T18:32:42;32.92;;;6.50;;
47617;SDS011;33336;36.728;-4.414;2022-12-05T18:37:45;22.45;;;5.40;;
47617;SDS011;33336;36.728;-4.414;2022-12-05T18:42:50;28.25;;;6.18;;
47617;SDS011;33336;36.728;-4.414;2022-12-05T18:47:52;29.80;;;5.93;;
47617;SDS011;33336;36.728;-4.414;2022-12-05T18:52:56;32.10;;;6.10;;
47617;SDS011;33336;36.728;-4.414;2022-12-05T18:58:00;28.23;;;5.05;;
47617;SDS011;33336;36.728;-4.414;2022-12-05T19:03:05;27.17;;;5.07;;
47617;SDS011;33336;36.728;-4.414;2022-12-05T19:08:08;20.83;;;5.47;;
47617;SDS011;33336;36.728;-4.414;2022-12-05T19:13:13;33.20;;;5.95;;
47617;SDS011;33336;36.728;-4.414;2022-12-05T19:18:19;30.38;;;6.72;;
47617;SDS011;33336;36.728;-4.414;2022-12-05T19:23:23;22.60;;;6.88;;
47617;SDS011;33336;36.728;-4.414;2022-12-05T19:28:28;28.35;;;6.32;;
47617;SDS011;33336;36.728;-4.414;2022-12-05T19:33:32;26.42;;;6.70;;
47617;SDS011;33336;36.728;-4.414;2022-12-05T19:38:35;29.85;;;7.55;;
47617;SDS011;33336;36.728;-4.414;2022-12-05T19:43:42;29.17;;;6.55;;
47617;SDS011;33336;36.728;-4.414;2022-12-05T19:48:45;23.60;;;6.10;;
47617;SDS011;33336;36.728;-4.414;2022-12-05T19:53:48;23.25;;;5.00;;
47617;SDS011;33336;36.728;-4.414;2022-12-05T19:58:54;23.25;;;5.32;;
47617;SDS011;33336;36.728;-4.414;2022-12-05T20:04:00;21.92;;;5.07;;
47617;SDS011;33336;36.728;-4.414;2022-12-05T20:09:04;21.48;;;5.60;;
47617;SDS011;33336;36.728;-4.414;2022-12-05T20:14:10;26.00;;;5.38;;
47617;SDS011;33336;36.728;-4.414;2022-12-05T20:19:14;19.85;;;5.78;;
47617;SDS011;33336;36.728;-4.414;2022-12-05T20:24:17;30.63;;;6.32;;
47617;SDS011;33336;36.728;-4.414;2022-12-05T20:29:22;22.85;;;4.78;;
47617;SDS011;33336;36.728;-4.414;2022-12-05T20:34:24;17.40;;;4.97;;
47617;SDS011;33336;36.728;-4.414;2022-12-05T20:39:27;17.63;;;4.57;;
47617;SDS011;33336;36.728;-4.414;2022-12-05T20:44:33;17.05;;;4.57;;
47617;SDS011;33336;36.728;-4.414;2022-12-05T20:49:37;15.52;;;4.28;;
47617;SDS011;33336;36.728;-4.414;2022-12-05T20:54:40;17.25;;;4.00;;
47617;SDS011;33336;36.728;-4.414;2022-12-05T20:59:44;19.23;;;4.45;;
47617;SDS011;33336;36.728;-4.414;2022-12-05T21:04:50;21.52;;;4.38;;
47617;SDS011;33336;36.728;-4.414;2022-12-05T21:09:54;19.88;;;5.60;;
47617;SDS011;33336;36.728;-4.414;2022-12-05T21:14:59;13.80;;;3.83;;
47617;SDS011;33336;36.728;-4.414;2022-12-05T21:20:03;12.98;;;3.22;;
47617;SDS011;33336;36.728;-4.414;2022-12-05T21:25:07;20.10;;;4.13;;
47617;SDS011;33336;36.728;-4.414;2022-12-05T21:30:12;15.93;;;3.20;;
47617;SDS011;33336;36.728;-4.414;2022-12-05T21:35:16;12.95;;;3.25;;
47617;SDS011;33336;36.728;-4.414;2022-12-05T21:40:18;13.73;;;3.05;;
47617;SDS011;33336;36.728;-4.414;2022-12-05T21:45:23;14.25;;;2.50;;
47617;SDS011;33336;36.728;-4.414;2022-12-05T21:50:26;13.23;;;2.60;;
47617;SDS011;33336;36.728;-4.414;2022-12-05T21:55:30;14.63;;;3.67;;
47617;SDS011;33336;36.728;-4.414;2022-12-05T22:00:34;14.32;;;2.60;;
47617;SDS011;33336;36.728;-4.414;2022-12-05T22:05:39;13.52;;;3.85;;
47617;SDS011;33336;36.728;-4.414;2022-12-05T22:10:42;9.55;;;2.30;;
47617;SDS011;33336;36.728;-4.414;2022-12-05T22:15:47;16.17;;;3.72;;
47617;SDS011;33336;36.728;-4.414;2022-12-05T22:20:53;11.15;;;2.83;;
47617;SDS011;33336;36.728;-4.414;2022-12-05T22:26:00;9.35;;;2.67;;
47617;SDS011;33336;36.728;-4.414;2022-12-05T22:31:07;7.35;;;2.40;;
47617;SDS011;33336;36.728;-4.414;2022-12-05T22:36:12;7.88;;;2.40;;
47617;SDS011;33336;36.728;-4.414;2022-12-05T22:41:16;13.23;;;2.33;;
47617;SDS011;33336;36.728;-4.414;2022-12-05T22:46:23;11.15;;;2.42;;
47617;SDS011;33336;36.728;-4.414;2022-12-05T22:51:27;10.55;;;2.50;;
47617;SDS011;33336;36.728;-4.414;2022-12-05T22:56:30;9.93;;;2.08;;
47617;SDS011;33336;36.728;-4.414;2022-12-05T23:01:35;11.32;;;2.33;;
47617;SDS011;33336;36.728;-4.414;2022-12-05T23:06:38;13.40;;;2.97;;
47617;SDS011;33336;36.728;-4.414;2022-12-05T23:11:41;10.90;;;2.95;;
47617;SDS011;33336;36.728;-4.414;2022-12-05T23:16:45;6.85;;;2.20;;
47617;SDS011;33336;36.728;-4.414;2022-12-05T23:21:48;16.30;;;3.90;;
47617;SDS011;33336;36.728;-4.414;2022-12-05T23:26:52;8.25;;;2.10;;
47617;SDS011;33336;36.728;-4.414;2022-12-05T23:31:56;16.92;;;3.30;;
47617;SDS011;33336;36.728;-4.414;2022-12-05T23:37:00;9.38;;;2.33;;
47617;SDS011;33336;36.728;-4.414;2022-12-05T23:42:03;13.90;;;2.47;;
47617;SDS011;33336;36.728;-4.414;2022-12-05T23:47:07;9.73;;;2.25;;
47617;SDS011;33336;36.728;-4.414;2022-12-05T23:52:10;9.15;;;2.22;;
47617;SDS011;33336;36.728;-4.414;2022-12-05T23:57:14;8.35;;;1.90;;
